createdAt,value
2019-04-11T00:00:56.158Z,69.68
2019-04-11T00:03:27.166Z,69.97
2019-04-11T00:05:57.868Z,69.95
2019-04-11T00:08:28.759Z,69.93
2019-04-11T00:10:59.796Z,69.82
2019-04-11T00:13:33.428Z,69.82
2019-04-11T00:16:03.011Z,70.00
2019-04-11T00:18:34.529Z,69.68
2019-04-11T00:21:06.644Z,70.20
2019-04-11T00:23:38.527Z,69.97
2019-04-11T00:26:11.720Z,69.92
2019-04-11T00:28:43.404Z,69.68
2019-04-11T00:31:14.986Z,69.58
2019-04-11T00:33:46.600Z,69.65
2019-04-11T00:36:17.226Z,69.39
2019-04-11T00:38:47.856Z,68.70
2019-04-11T00:41:18.677Z,68.68
2019-04-11T00:43:50.463Z,68.40
2019-04-11T00:46:22.368Z,68.49
2019-04-11T00:48:54.526Z,69.16
2019-04-11T00:51:25.707Z,69.04
2019-04-11T00:53:56.406Z,69.04
2019-04-11T00:56:26.970Z,68.20
2019-04-11T00:58:58.281Z,68.52
2019-04-11T01:01:28.748Z,68.22
2019-04-11T01:03:59.387Z,68.08
2019-04-11T01:06:30.251Z,68.03
2019-04-11T01:09:00.537Z,68.15
2019-04-11T01:11:34.103Z,68.28
2019-04-11T01:14:05.661Z,68.65
2019-04-11T01:16:54.155Z,68.94
2019-04-11T01:19:24.804Z,69.22
2019-04-11T01:21:57.930Z,69.12
2019-04-11T01:24:29.192Z,70.19
2019-04-11T01:26:59.596Z,70.37
2019-04-11T01:29:31.331Z,70.77
2019-04-11T01:32:04.935Z,71.07
2019-04-11T01:34:35.642Z,72.33
2019-04-11T01:37:07.143Z,72.05
2019-04-11T01:39:59.363Z,71.88
2019-04-11T01:42:31.251Z,72.26
2019-04-11T01:45:03.216Z,72.88
2019-04-11T01:48:05.435Z,73.51
2019-04-11T01:50:37.028Z,73.00
2019-04-11T01:53:08.912Z,72.99
2019-04-11T01:55:39.450Z,72.94
2019-04-11T01:58:10.833Z,72.55
2019-04-11T02:01:00.790Z,72.42
2019-04-11T02:03:49.767Z,73.06
2019-04-11T02:06:21.687Z,72.88
2019-04-11T02:08:52.474Z,72.72
2019-04-11T02:11:23.657Z,73.09
2019-04-11T02:14:05.949Z,72.86
2019-04-11T02:16:27.237Z,72.94
2019-04-11T02:18:59.488Z,72.88
2019-04-11T02:21:30.583Z,72.66
2019-04-11T02:24:09.811Z,72.23
2019-04-11T02:26:41.410Z,72.17
2019-04-11T02:29:13.498Z,72.96
2019-04-11T02:31:44.615Z,73.24
2019-04-11T02:34:16.852Z,72.77
2019-04-11T02:36:48.927Z,72.84
2019-04-11T02:39:20.394Z,72.52
2019-04-11T02:41:52.767Z,72.80
2019-04-11T02:44:36.455Z,72.94
2019-04-11T02:47:07.530Z,73.17
2019-04-11T02:49:28.478Z,72.82
2019-04-11T02:52:00.793Z,72.98
2019-04-11T02:54:33.527Z,73.28
2019-04-11T02:57:05.711Z,72.97
2019-04-11T02:59:38.955Z,73.05
2019-04-11T03:02:11.253Z,72.87
2019-04-11T03:04:43.713Z,72.44
2019-04-11T03:07:15.042Z,71.98
2019-04-11T03:09:48.624Z,71.99
2019-04-11T03:12:19.373Z,72.29
2019-04-11T03:15:12.451Z,72.55
2019-04-11T03:17:29.453Z,72.82
2019-04-11T03:20:08.288Z,72.76
2019-04-11T03:22:27.947Z,72.59
2019-04-11T03:25:00.346Z,72.49
2019-04-11T03:27:32.613Z,72.42
2019-04-11T03:30:09.926Z,72.42
2019-04-11T03:33:25.222Z,72.93
2019-04-11T03:36:00.008Z,72.46
2019-04-11T03:38:07.536Z,72.87
2019-04-11T03:40:30.740Z,73.21
2019-04-11T03:43:04.420Z,73.28
2019-04-11T03:45:37.932Z,72.98
2019-04-11T03:48:07.447Z,72.73
2019-04-11T03:50:26.077Z,72.78
2019-04-11T03:52:57.875Z,72.73
2019-04-11T03:55:30.035Z,72.32
2019-04-11T03:58:01.277Z,72.38
2019-04-11T04:00:36.287Z,72.55
2019-04-11T04:03:05.937Z,72.70
2019-04-11T04:05:39.001Z,72.46
2019-04-11T04:08:10.781Z,72.36
2019-04-11T04:11:00.654Z,72.26
2019-04-11T04:13:32.059Z,72.00
2019-04-11T04:16:18.713Z,71.80
2019-04-11T04:19:05.296Z,71.96
2019-04-11T04:21:55.340Z,71.93
2019-04-11T04:24:34.120Z,71.98
2019-04-11T04:27:02.680Z,72.71
2019-04-11T04:29:35.192Z,73.25
2019-04-11T04:32:08.190Z,73.66
2019-04-11T04:34:40.238Z,73.48
2019-04-11T04:37:12.020Z,73.74
2019-04-11T04:39:43.748Z,73.97
2019-04-11T04:42:24.297Z,74.16
2019-04-11T04:44:48.812Z,74.35
2019-04-11T04:47:30.020Z,74.16
2019-04-11T04:49:52.242Z,74.16
2019-04-11T04:52:25.057Z,73.81
2019-04-11T04:54:57.363Z,73.45
2019-04-11T04:57:29.187Z,73.41
2019-04-11T05:00:00.113Z,73.73
2019-04-11T05:02:35.527Z,73.80
2019-04-11T05:05:06.723Z,74.54
2019-04-11T05:07:40.126Z,74.54
2019-04-11T05:10:11.115Z,73.94
2019-04-11T05:12:41.830Z,73.70
2019-04-11T05:15:14.402Z,73.40
2019-04-11T05:17:46.134Z,73.16
2019-04-11T05:20:17.159Z,72.78
2019-04-11T05:22:47.710Z,73.62
2019-04-11T05:25:18.309Z,74.03
2019-04-11T05:27:49.682Z,74.23
2019-04-11T05:30:19.925Z,73.53
2019-04-11T05:32:50.810Z,73.96
2019-04-11T05:35:22.736Z,74.39
2019-04-11T05:37:53.780Z,72.85
2019-04-11T05:40:24.387Z,72.94
2019-04-11T05:42:55.705Z,72.86
2019-04-11T05:45:26.747Z,72.18
2019-04-11T05:47:58.358Z,71.38
2019-04-11T05:50:31.926Z,71.58
2019-04-11T05:53:05.433Z,71.74
2019-04-11T05:55:42.681Z,71.15
2019-04-11T05:58:14.240Z,71.35
2019-04-11T06:00:58.334Z,71.87
2019-04-11T06:03:29.963Z,72.36
2019-04-11T06:06:24.577Z,70.38
2019-04-11T06:09:00.675Z,71.46
2019-04-11T06:11:48.199Z,69.11
2019-04-11T06:14:33.295Z,68.57
2019-04-11T06:17:07.284Z,65.93
2019-04-11T06:19:55.685Z,65.09
2019-04-11T06:22:26.875Z,65.31
2019-04-11T06:25:28.665Z,65.39
2019-04-11T06:28:04.287Z,65.61
2019-04-11T06:30:52.729Z,64.83
2019-04-11T06:33:28.870Z,64.83
2019-04-11T06:36:23.803Z,64.80
2019-04-11T06:39:01.090Z,65.60
2019-04-11T06:41:55.493Z,65.08
2019-04-11T06:44:44.559Z,65.52
2019-04-11T06:47:34.697Z,65.24
2019-04-11T06:50:39.672Z,65.28
2019-04-11T06:53:12.035Z,66.48
2019-04-11T06:56:00.712Z,67.23
2019-04-11T06:58:45.733Z,67.33
2019-04-11T07:01:23.233Z,67.88
2019-04-11T07:03:57.481Z,67.67
2019-04-11T07:06:31.427Z,68.32
2019-04-11T07:09:30.844Z,68.01
2019-04-11T07:12:06.319Z,68.28
2019-04-11T07:15:00.084Z,68.49
2019-04-11T07:17:48.378Z,69.09
2019-04-11T07:20:36.318Z,68.64
2019-04-11T07:23:24.343Z,68.88
2019-04-11T07:26:20.696Z,68.79
2019-04-11T07:29:10.183Z,69.10
2019-04-11T07:32:17.996Z,68.20
2019-04-11T07:35:05.841Z,68.30
2019-04-11T07:37:38.698Z,67.70
2019-04-11T07:40:29.828Z,67.56
2019-04-11T07:43:26.804Z,67.96
2019-04-11T07:46:26.907Z,68.16
2019-04-11T07:48:59.929Z,67.11
2019-04-11T07:51:36.439Z,67.35
2019-04-11T07:54:09.330Z,67.33
2019-04-11T07:56:58.812Z,67.48
2019-04-11T07:59:35.584Z,67.66
2019-04-11T08:02:24.397Z,67.02
2019-04-11T08:05:09.343Z,66.76
2019-04-11T08:08:01.464Z,66.99
2019-04-11T08:10:39.373Z,66.58
2019-04-11T08:13:14.306Z,67.83
2019-04-11T08:16:02.397Z,67.76
2019-04-11T08:18:49.506Z,66.95
2019-04-11T08:21:38.511Z,65.98
2019-04-11T08:24:12.414Z,66.08
2019-04-11T08:27:00.947Z,65.79
2019-04-11T08:29:31.758Z,65.36
2019-04-11T08:32:23.594Z,65.40
2019-04-11T08:35:04.023Z,65.45
2019-04-11T08:37:56.646Z,65.81
2019-04-11T08:40:28.188Z,64.73
2019-04-11T08:43:10.822Z,64.60
2019-04-11T08:45:47.077Z,65.11
2019-04-11T08:48:19.159Z,63.94
2019-04-11T08:50:54.636Z,64.23
2019-04-11T08:53:46.969Z,65.18
2019-04-11T08:56:18.988Z,64.71
2019-04-11T08:59:39.823Z,64.73
2019-04-11T09:02:10.728Z,64.09
2019-04-11T09:05:06.914Z,64.00
2019-04-11T09:07:38.836Z,63.98
2019-04-11T09:10:28.176Z,64.22
2019-04-11T09:13:07.045Z,64.82
2019-04-11T09:15:54.748Z,64.58
2019-04-11T09:18:25.978Z,64.36
2019-04-11T09:21:18.546Z,65.29
2019-04-11T09:23:50.122Z,64.96
2019-04-11T09:26:42.551Z,65.02
2019-04-11T09:29:13.605Z,65.02
2019-04-11T09:32:02.262Z,65.74
2019-04-11T09:34:54.642Z,65.85
2019-04-11T09:37:35.845Z,66.60
2019-04-11T09:40:26.481Z,66.04
2019-04-11T09:43:28.358Z,66.36
2019-04-11T09:46:27.223Z,66.16
2019-04-11T09:49:10.640Z,66.88
2019-04-11T09:51:53.955Z,67.00
2019-04-11T09:54:35.134Z,67.56
2019-04-11T09:57:34.569Z,69.35
2019-04-11T10:00:26.693Z,68.72
2019-04-11T10:03:04.214Z,69.31
2019-04-11T10:05:54.661Z,69.50
2019-04-11T10:08:51.119Z,70.10
2019-04-11T10:11:56.783Z,69.82
2019-04-11T10:14:29.436Z,69.05
2019-04-11T10:17:17.647Z,68.51
2019-04-11T10:19:57.557Z,69.15
2019-04-11T10:22:54.446Z,69.47
2019-04-11T10:25:47.630Z,69.41
2019-04-11T10:28:43.840Z,69.13
2019-04-11T10:31:22.358Z,67.33
2019-04-11T10:34:30.450Z,66.92
2019-04-11T10:37:11.667Z,67.27
2019-04-11T10:40:04.045Z,65.59
2019-04-11T10:42:34.992Z,65.70
2019-04-11T10:45:25.331Z,64.73
2019-04-11T10:47:58.253Z,62.24
2019-04-11T10:51:06.615Z,63.36
2019-04-11T10:53:37.609Z,62.04
2019-04-11T10:56:26.756Z,60.80
2019-04-11T10:58:59.538Z,61.15
2019-04-11T11:01:52.582Z,61.28
2019-04-11T11:04:43.070Z,62.19
2019-04-11T11:07:20.381Z,62.27
2019-04-11T11:10:21.690Z,62.49
2019-04-11T11:13:16.017Z,63.39
2019-04-11T11:15:51.959Z,65.17
2019-04-11T11:19:24.653Z,65.29
2019-04-11T11:21:33.906Z,64.24
2019-04-11T11:24:38.250Z,63.47
2019-04-11T11:27:07.362Z,63.41
2019-04-11T11:29:47.373Z,63.81
2019-04-11T11:32:29.708Z,60.84
2019-04-11T11:35:22.569Z,60.83
2019-04-11T11:38:17.769Z,59.64
2019-04-11T11:41:05.869Z,58.41
2019-04-11T11:43:51.727Z,57.16
2019-04-11T11:46:41.007Z,57.59
2019-04-11T11:49:32.521Z,55.34
2019-04-11T11:52:08.849Z,55.00
2019-04-11T11:54:43.969Z,53.92
2019-04-11T11:57:20.954Z,53.42
2019-04-11T11:59:56.573Z,52.75
2019-04-11T12:02:42.379Z,51.93
2019-04-11T12:05:26.075Z,53.33
2019-04-11T12:08:16.467Z,51.93
2019-04-11T12:11:01.774Z,52.22
2019-04-11T12:13:51.540Z,49.43
2019-04-11T12:16:39.722Z,46.66
2019-04-11T12:19:42.625Z,45.33
2019-04-11T12:22:04.338Z,42.30
2019-04-11T12:25:03.014Z,39.68
2019-04-11T12:27:56.386Z,38.84
2019-04-11T12:30:35.668Z,37.04
2019-04-11T12:33:28.269Z,36.47
2019-04-11T12:36:05.681Z,35.36
2019-04-11T12:38:55.023Z,33.43
2019-04-11T12:41:47.490Z,34.11
2019-04-11T12:44:36.670Z,36.56
2019-04-11T12:47:19.908Z,36.80
2019-04-11T12:50:24.367Z,38.77
2019-04-11T12:53:01.237Z,36.11
2019-04-11T12:55:53.199Z,34.12
2019-04-11T12:58:45.836Z,36.25
2019-04-11T13:01:50.166Z,35.12
2019-04-11T13:04:25.782Z,34.01
2019-04-11T13:07:17.669Z,31.36
2019-04-11T13:09:55.599Z,30.58
2019-04-11T13:12:44.757Z,29.40
2019-04-11T13:15:24.928Z,31.85
2019-04-11T13:18:12.975Z,34.69
2019-04-11T13:20:46.659Z,35.87
2019-04-11T13:23:35.863Z,35.26
2019-04-11T13:26:31.276Z,36.14
2019-04-11T13:29:12.891Z,34.63
2019-04-11T13:32:00.519Z,35.13
2019-04-11T13:34:30.970Z,36.14
2019-04-11T13:37:23.113Z,36.13
2019-04-11T13:40:02.971Z,35.28
2019-04-11T13:42:58.193Z,36.13
2019-04-11T13:45:28.687Z,35.89
2019-04-11T13:48:26.883Z,37.04
2019-04-11T13:50:58.425Z,38.89
2019-04-11T13:53:45.889Z,39.91
2019-04-11T13:56:16.505Z,41.40
2019-04-11T13:59:23.829Z,38.34
2019-04-11T14:01:56.969Z,38.46
2019-04-11T14:04:32.419Z,39.76
2019-04-11T14:07:02.888Z,39.17
2019-04-11T14:09:37.945Z,41.04
2019-04-11T14:12:11.224Z,43.47
2019-04-11T14:15:15.711Z,44.49
2019-04-11T14:18:11.705Z,44.94
2019-04-11T14:20:59.192Z,45.33
2019-04-11T14:23:37.408Z,41.09
2019-04-11T14:26:25.469Z,36.85
2019-04-11T14:29:13.378Z,35.17
2019-04-11T14:31:56.294Z,33.10
2019-04-11T14:34:43.960Z,31.40
2019-04-11T14:37:38.468Z,30.61
2019-04-11T14:40:29.382Z,31.34
2019-04-11T14:43:36.886Z,30.21
2019-04-11T14:46:26.131Z,30.05
2019-04-11T14:49:18.409Z,30.45
2019-04-11T14:52:07.471Z,33.51
2019-04-11T14:54:43.550Z,37.29
2019-04-11T14:57:22.806Z,33.87
2019-04-11T14:59:56.360Z,33.12
2019-04-11T15:03:03.889Z,33.12
2019-04-11T15:05:39.433Z,35.41
2019-04-11T15:08:12.034Z,37.44
2019-04-11T15:11:03.862Z,39.59
2019-04-11T15:13:34.489Z,42.42
2019-04-11T15:16:38.869Z,42.33
2019-04-11T15:19:09.618Z,42.11
2019-04-11T15:22:13.708Z,44.64
2019-04-11T15:24:45.477Z,45.62
2019-04-11T15:27:46.843Z,46.50
2019-04-11T15:30:17.680Z,47.35
2019-04-11T15:33:04.604Z,47.49
2019-04-11T15:35:35.022Z,47.03
2019-04-11T15:38:22.884Z,46.65
2019-04-11T15:40:56.338Z,46.80
2019-04-11T15:43:44.448Z,46.56
2019-04-11T15:46:34.824Z,47.46
2019-04-11T15:49:29.681Z,47.53
2019-04-11T15:52:06.401Z,47.16
2019-04-11T15:54:55.290Z,46.67
2019-04-11T15:57:33.398Z,48.36
2019-04-11T16:00:24.081Z,47.76
2019-04-11T16:03:14.263Z,47.86
2019-04-11T16:06:18.639Z,47.67
2019-04-11T16:08:54.911Z,48.07
2019-04-11T16:11:52.794Z,48.49
2019-04-11T16:14:28.850Z,48.76
2019-04-11T16:17:21.012Z,48.40
2019-04-11T16:19:56.649Z,49.08
2019-04-11T16:22:44.409Z,48.52
2019-04-11T16:25:20.282Z,48.70
2019-04-11T16:28:12.212Z,49.81
2019-04-11T16:30:44.800Z,49.77
2019-04-11T16:33:33.874Z,50.44
2019-04-11T16:36:14.318Z,50.39
2019-04-11T16:39:03.723Z,50.81
2019-04-11T16:41:53.911Z,51.31
2019-04-11T16:44:37.138Z,51.77
2019-04-11T16:47:41.268Z,51.28
2019-04-11T16:50:11.915Z,51.95
2019-04-11T16:52:42.265Z,51.95
2019-04-11T16:55:12.715Z,51.90
2019-04-11T16:57:44.249Z,51.72
2019-04-11T17:00:20.085Z,51.89
2019-04-11T17:02:48.081Z,51.88
2019-04-11T17:05:18.401Z,51.50
2019-04-11T17:07:56.803Z,51.63
2019-04-11T17:10:44.871Z,51.72
2019-04-11T17:13:15.360Z,51.25
2019-04-11T17:15:45.673Z,51.44
2019-04-11T17:18:18.797Z,51.84
2019-04-11T17:20:50.884Z,52.71
2019-04-11T17:23:21.488Z,53.68
2019-04-11T17:25:53.005Z,54.22
2019-04-11T17:28:24.168Z,54.47
2019-04-11T17:30:55.867Z,54.87
2019-04-11T17:33:28.537Z,55.25
2019-04-11T17:36:01.993Z,55.55
2019-04-11T17:38:30.420Z,56.01
2019-04-11T17:41:01.068Z,57.04
2019-04-11T17:43:31.872Z,57.26
2019-04-11T17:46:02.231Z,58.00
2019-04-11T17:48:32.743Z,58.34
2019-04-11T17:51:05.203Z,58.76
2019-04-11T17:53:35.639Z,59.27
2019-04-11T17:56:06.455Z,59.68
2019-04-11T17:58:37.127Z,59.43
2019-04-11T18:01:08.257Z,59.21
2019-04-11T18:03:41.822Z,59.47
2019-04-11T18:06:11.516Z,59.70
2019-04-11T18:08:42.059Z,59.40
2019-04-11T18:11:12.463Z,59.07
2019-04-11T18:13:43.419Z,59.10
2019-04-11T18:16:13.962Z,59.34
2019-04-11T18:18:44.484Z,59.32
2019-04-11T18:21:14.725Z,59.93
2019-04-11T18:23:45.338Z,59.64
2019-04-11T18:26:15.726Z,60.06
2019-04-11T18:28:46.229Z,61.70
2019-04-11T18:31:19.015Z,62.92
2019-04-11T18:33:49.406Z,63.32
2019-04-11T18:36:19.727Z,62.63
2019-04-11T18:38:50.161Z,63.47
2019-04-11T18:41:20.791Z,63.01
2019-04-11T18:43:51.150Z,62.52
2019-04-11T18:46:21.849Z,63.36
2019-04-11T18:48:54.422Z,63.86
2019-04-11T18:51:24.613Z,64.14
2019-04-11T18:53:55.084Z,64.23
2019-04-11T18:56:25.710Z,64.58
2019-04-11T18:58:56.012Z,63.96
2019-04-11T19:01:26.758Z,64.81
2019-04-11T19:03:57.328Z,65.20
2019-04-11T19:06:28.392Z,65.22
2019-04-11T19:08:59.114Z,64.77
2019-04-11T19:11:29.752Z,64.96
2019-04-11T19:14:00.722Z,64.80
2019-04-11T19:16:31.306Z,65.09
2019-04-11T19:19:01.984Z,65.07
2019-04-11T19:21:32.241Z,64.27
2019-04-11T19:24:02.843Z,64.77
2019-04-11T19:26:33.278Z,64.43
2019-04-11T19:29:06.324Z,64.54
2019-04-11T19:31:37.069Z,64.13
2019-04-11T19:34:08.847Z,64.34
2019-04-11T19:36:39.829Z,64.14
2019-04-11T19:39:13.901Z,63.24
2019-04-11T19:41:47.787Z,62.91
2019-04-11T19:44:16.849Z,63.69
2019-04-11T19:46:50.956Z,64.14
2019-04-11T19:49:21.938Z,64.55
2019-04-11T19:51:52.384Z,64.82
2019-04-11T19:54:23.063Z,65.12
2019-04-11T19:57:03.769Z,65.04
2019-04-11T19:59:34.527Z,65.58
2019-04-11T20:02:05.469Z,65.89
2019-04-11T20:04:36.185Z,65.90
2019-04-11T20:07:07.231Z,67.67
2019-04-11T20:09:37.596Z,67.17
2019-04-11T20:12:08.264Z,66.79
2019-04-11T20:14:38.945Z,66.88
2019-04-11T20:17:09.992Z,66.88
2019-04-11T20:19:41.310Z,66.81
2019-04-11T20:22:11.928Z,66.24
2019-04-11T20:24:45.931Z,66.78
2019-04-11T20:27:15.428Z,66.72
2019-04-11T20:29:46.152Z,66.49
2019-04-11T20:32:16.959Z,67.32
2019-04-11T20:34:47.907Z,67.33
2019-04-11T20:37:18.353Z,67.18
2019-04-11T20:39:49.064Z,67.16
2019-04-11T20:42:23.841Z,67.68
2019-04-11T20:44:52.473Z,67.69
2019-04-11T20:47:23.203Z,67.42
2019-04-11T20:49:53.925Z,67.34
2019-04-11T20:52:24.323Z,66.47
2019-04-11T20:54:57.522Z,66.58
2019-04-11T20:57:28.314Z,66.66
2019-04-11T20:59:58.870Z,67.14
2019-04-11T21:02:30.467Z,67.25
2019-04-11T21:05:01.259Z,67.69
2019-04-11T21:07:33.173Z,67.88
2019-04-11T21:10:04.671Z,67.71
2019-04-11T21:12:37.383Z,67.55
2019-04-11T21:15:07.615Z,67.22
2019-04-11T21:17:38.100Z,67.06
2019-04-11T21:20:08.939Z,66.98
2019-04-11T21:22:39.388Z,67.17
2019-04-11T21:25:10.271Z,67.18
2019-04-11T21:27:41.144Z,67.00
2019-04-11T21:30:12.265Z,67.18
2019-04-11T21:32:42.919Z,67.11
2019-04-11T21:35:14.153Z,66.96
2019-04-11T21:37:45.014Z,67.70
2019-04-11T21:40:15.439Z,67.86
2019-04-11T21:42:45.800Z,67.22
2019-04-11T21:45:16.483Z,67.06
2019-04-11T21:47:47.152Z,67.15
2019-04-11T21:50:18.039Z,67.27
2019-04-11T21:52:48.909Z,67.43
2019-04-11T21:55:19.725Z,67.60
2019-04-11T21:57:50.172Z,67.90
2019-04-11T22:00:27.578Z,68.09
2019-04-11T22:02:59.755Z,68.02
2019-04-11T22:05:30.651Z,68.21
2019-04-11T22:08:03.844Z,68.36
2019-04-11T22:10:33.991Z,68.56
2019-04-11T22:13:04.803Z,68.40
2019-04-11T22:15:35.218Z,68.66
2019-04-11T22:18:06.079Z,69.02
2019-04-11T22:20:36.479Z,69.07
2019-04-11T22:23:06.566Z,69.17
2019-04-11T22:25:37.220Z,69.46
2019-04-11T22:28:07.685Z,69.43
2019-04-11T22:30:38.163Z,69.59
2019-04-11T22:33:27.728Z,69.68
2019-04-11T22:36:00.014Z,69.86
2019-04-11T22:38:31.976Z,69.99
2019-04-11T22:41:02.835Z,70.07
2019-04-11T22:43:37.798Z,70.43
2019-04-11T22:46:08.032Z,70.78
2019-04-11T22:48:39.021Z,71.17
2019-04-11T22:51:11.301Z,71.24
2019-04-11T22:53:44.005Z,71.97
2019-04-11T22:56:14.618Z,71.62
2019-04-11T22:58:45.039Z,71.70
2019-04-11T23:01:16.530Z,71.66
2019-04-11T23:03:54.518Z,72.44
2019-04-11T23:06:25.122Z,72.75
2019-04-11T23:08:55.885Z,71.68
2019-04-11T23:11:26.549Z,71.92
2019-04-11T23:13:57.220Z,72.08
2019-04-11T23:16:28.134Z,72.09
2019-04-11T23:18:58.964Z,72.12
2019-04-11T23:21:29.472Z,72.32
2019-04-11T23:23:59.921Z,72.76
2019-04-11T23:26:30.633Z,72.92
2019-04-11T23:29:01.082Z,73.02
2019-04-11T23:31:31.381Z,73.21
2019-04-11T23:34:01.995Z,73.29
2019-04-11T23:36:32.570Z,73.20
2019-04-11T23:39:03.032Z,72.89
2019-04-11T23:41:35.191Z,73.06
2019-04-11T23:44:05.437Z,73.24
2019-04-11T23:46:36.169Z,73.23
2019-04-11T23:49:07.049Z,73.09
2019-04-11T23:51:37.685Z,73.18
2019-04-11T23:54:08.407Z,72.72
2019-04-11T23:56:39.084Z,72.42
2019-04-11T23:59:09.651Z,72.20
